Terminal Aerodrome Forecast
Issued by NWS Brownsville, TX

Home | Current Version | Previous Version | Text Only | Print | Product List | Glossary On
Versions: 1 2 3 4 5 6 7 8 9 10 11 12 13 14 15 16 17 18
000
FTUS44 KBRO 242300
TAFMFE
TAF
KMFE 242329Z 2500/2524 08016G24KT P6SM SCT250
     FM250200 12008KT P6SM SCT150 BKN250
     FM250500 12003KT P6SM SKC
     FM251500 15010KT P6SM FEW030
     FM252000 14014G23KT P6SM FEW050 SCT250=

USA.gov is the U.S. government's official web portal to all federal, state and local government web resources and services.